Time;durP1;ratioP1;P1;durP2;ratioP2;P2;SDS_P1;SDS_P2;PMS_P1;PMS_P2;Temp;Humidity;BMP_temperature;BMP_pressure;BME280_temperature;BME280_humidity;BME280_pressure;Samples;Min_cycle;Max_cycle;Signal;HPM_P1;HPM_P2
2023/05/28 00:01:00;;;;;;;1.80;1.70;;;23.20;84.40;;;;;;5093131;28;20447;-83
2023/05/28 00:03:27;;;;;;;1.60;1.50;;;23.10;84.20;;;;;;5093108;28;20473;-83
2023/05/28 00:05:54;;;;;;;2.20;2.00;;;23.30;84.20;;;;;;5093102;28;20488;-83
2023/05/28 00:08:22;;;;;;;1.93;1.80;;;23.10;83.80;;;;;;5093041;28;20464;-83
2023/05/28 00:10:49;;;;;;;2.20;2.10;;;23.10;84.00;;;;;;5093051;28;20450;-83
2023/05/28 00:13:17;;;;;;;2.03;1.80;;;23.10;84.00;;;;;;5092809;28;20475;-83
2023/05/28 00:15:44;;;;;;;1.97;1.73;;;23.10;84.30;;;;;;5093018;28;20854;-83
2023/05/28 00:18:11;;;;;;;1.67;1.57;;;23.20;84.30;;;;;;5092899;28;20435;-82
2023/05/28 00:20:38;;;;;;;2.00;1.80;;;23.20;84.50;;;;;;5092948;28;20818;-82
2023/05/28 00:23:05;;;;;;;2.40;2.20;;;23.10;84.30;;;;;;5092898;28;20442;-82
2023/05/28 00:25:33;;;;;;;2.30;2.17;;;23.10;84.10;;;;;;5092806;28;20436;-83
2023/05/28 00:28:00;;;;;;;1.70;1.60;;;23.20;84.60;;;;;;5092935;28;20454;-83
2023/05/28 00:30:27;;;;;;;1.63;1.53;;;23.10;84.30;;;;;;5092807;28;20435;-83
2023/05/28 00:32:54;;;;;;;2.00;1.80;;;23.10;84.40;;;;;;5092780;28;20770;-83
2023/05/28 00:35:21;;;;;;;2.07;1.97;;;23.10;84.50;;;;;;5092833;28;20794;-83
2023/05/28 00:37:48;;;;;;;2.03;1.83;;;23.30;84.70;;;;;;5092641;28;20464;-83
2023/05/28 00:40:16;;;;;;;2.00;1.80;;;23.30;84.70;;;;;;5092716;28;20440;-83
2023/05/28 00:42:44;;;;;;;2.03;1.87;;;23.10;84.70;;;;;;5092772;28;20526;-83
2023/05/28 00:45:11;;;;;;;2.40;2.20;;;23.10;84.70;;;;;;5092631;28;20533;-82
2023/05/28 00:47:39;;;;;;;2.07;1.77;;;23.10;84.70;;;;;;5092561;28;20482;-82
2023/05/28 00:50:07;;;;;;;2.10;2.00;;;23.10;84.70;;;;;;5092837;28;20468;-83
2023/05/28 00:52:35;;;;;;;2.07;1.90;;;23.10;84.80;;;;;;5092736;28;20444;-83
2023/05/28 00:55:02;;;;;;;1.60;1.50;;;23.10;84.80;;;;;;5092791;28;20436;-83
2023/05/28 00:57:29;;;;;;;1.57;1.47;;;23.10;84.50;;;;;;5094004;28;20456;-83
2023/05/28 00:59:57;;;;;;;1.73;1.63;;;23.10;84.90;;;;;;5096143;28;20812;-83
2023/05/28 01:02:24;;;;;;;1.93;1.80;;;23.10;84.80;;;;;;5096227;28;20497;-83
2023/05/28 01:04:51;;;;;;;1.67;1.57;;;23.10;84.90;;;;;;5096248;28;20442;-83
2023/05/28 01:07:18;;;;;;;1.80;1.70;;;23.10;84.80;;;;;;5096072;28;20482;-83
2023/05/28 01:09:44;;;;;;;2.10;1.90;;;23.10;84.70;;;;;;5096121;28;20452;-83
2023/05/28 01:12:11;;;;;;;2.00;1.90;;;23.00;84.80;;;;;;5095864;28;20474;-83
2023/05/28 01:14:39;;;;;;;1.97;1.87;;;23.10;84.70;;;;;;5095876;28;20445;-83
2023/05/28 01:17:07;;;;;;;1.87;1.77;;;23.10;85.10;;;;;;5095972;28;20440;-83
2023/05/28 01:19:34;;;;;;;1.90;1.80;;;23.10;85.00;;;;;;5095821;28;20948;-82
2023/05/28 01:22:05;;;;;;;1.90;1.80;;;23.10;84.80;;;;;;5095973;28;20443;-83
2023/05/28 01:24:36;;;;;;;2.17;1.50;;;23.10;84.80;;;;;;5095918;28;20851;-82
2023/05/28 01:27:04;;;;;;;2.07;1.87;;;23.30;84.80;;;;;;5095722;28;20993;-83
2023/05/28 01:29:30;;;;;;;2.23;1.80;;;23.00;84.70;;;;;;5095855;28;20780;-84
2023/05/28 01:31:57;;;;;;;2.10;1.90;;;23.00;84.70;;;;;;5095682;28;20497;-83
2023/05/28 01:34:24;;;;;;;1.80;1.70;;;23.00;84.80;;;;;;5095805;28;20851;-83
2023/05/28 01:36:57;;;;;;;1.70;1.60;;;23.10;84.70;;;;;;5095648;28;20446;-83
2023/05/28 01:39:26;;;;;;;1.50;1.40;;;23.20;84.90;;;;;;5095636;28;20455;-84
2023/05/28 01:41:55;;;;;;;1.80;1.70;;;23.00;84.80;;;;;;5095724;28;20937;-83
2023/05/28 01:44:23;;;;;;;2.13;2.00;;;23.00;84.70;;;;;;5095607;28;20440;-83
2023/05/28 01:46:52;;;;;;;2.00;1.80;;;23.00;85.00;;;;;;5095423;28;20486;-83
2023/05/28 01:49:20;;;;;;;2.03;1.83;;;23.00;85.10;;;;;;5095431;28;20444;-83
2023/05/28 01:51:46;;;;;;;1.80;1.70;;;23.00;84.90;;;;;;5095324;28;20451;-83
2023/05/28 01:54:13;;;;;;;2.03;1.83;;;23.00;85.60;;;;;;5095299;28;20447;-83
2023/05/28 01:56:40;;;;;;;1.73;1.50;;;23.00;85.40;;;;;;5094851;28;20446;-83
2023/05/28 01:59:08;;;;;;;2.03;1.93;;;23.00;85.30;;;;;;5095355;28;20451;-83
2023/05/28 02:01:36;;;;;;;1.63;1.53;;;23.00;85.20;;;;;;5095028;28;20435;-84
2023/05/28 02:04:04;;;;;;;2.10;1.90;;;23.00;85.50;;;;;;5095106;28;20958;-84
2023/05/28 02:06:32;;;;;;;1.60;1.50;;;23.00;86.30;;;;;;5094852;28;20552;-83
2023/05/28 02:08:59;;;;;;;1.90;1.70;;;23.00;85.40;;;;;;5093997;28;20456;-83
2023/05/28 02:11:26;;;;;;;1.80;1.70;;;23.00;85.40;;;;;;5094632;28;20443;-83
2023/05/28 02:13:54;;;;;;;1.30;1.20;;;23.00;85.40;;;;;;5095104;28;20445;-83
2023/05/28 02:16:22;;;;;;;1.80;1.70;;;23.00;85.50;;;;;;5094793;28;20625;-83
2023/05/28 02:18:52;;;;;;;2.17;1.30;;;23.00;85.70;;;;;;5094939;28;20443;-84
2023/05/28 02:21:19;;;;;;;1.93;1.83;;;22.90;85.20;;;;;;5094799;28;20465;-83
2023/05/28 02:23:48;;;;;;;1.90;1.80;;;23.00;85.60;;;;;;5094775;28;20991;-83
2023/05/28 02:26:15;;;;;;;1.70;1.60;;;22.90;85.40;;;;;;5094496;28;20826;-83
2023/05/28 02:28:43;;;;;;;1.97;1.87;;;22.90;85.50;;;;;;5094501;28;20444;-83
2023/05/28 02:31:10;;;;;;;1.87;1.77;;;22.90;85.50;;;;;;5094716;28;20445;-83
2023/05/28 02:33:38;;;;;;;1.50;1.40;;;22.90;85.50;;;;;;5094577;28;20456;-83
2023/05/28 02:36:07;;;;;;;1.63;1.47;;;22.90;85.40;;;;;;5094291;28;20431;-83
2023/05/28 02:38:34;;;;;;;1.77;1.67;;;22.90;85.40;;;;;;5094355;28;20463;-83
2023/05/28 02:41:01;;;;;;;1.67;1.57;;;22.90;85.50;;;;;;5094269;28;20440;-83
2023/05/28 02:43:28;;;;;;;1.60;1.50;;;22.90;85.30;;;;;;5094440;28;20471;-83
2023/05/28 02:45:54;;;;;;;1.70;1.60;;;23.10;85.80;;;;;;5094298;28;20432;-83
2023/05/28 02:48:21;;;;;;;1.80;1.60;;;22.90;85.30;;;;;;5094166;28;20484;-84
2023/05/28 02:50:49;;;;;;;1.83;1.50;;;22.90;85.30;;;;;;5094137;28;20443;-83
2023/05/28 02:53:21;;;;;;;1.80;1.70;;;22.90;85.30;;;;;;5094095;28;20523;-83
2023/05/28 02:55:48;;;;;;;1.80;1.70;;;22.90;85.40;;;;;;5094042;28;20454;-83
2023/05/28 02:58:15;;;;;;;2.00;1.63;;;23.10;85.70;;;;;;5094100;28;20440;-83
2023/05/28 03:00:42;;;;;;;1.77;1.67;;;22.90;85.70;;;;;;5094061;28;20443;-83
2023/05/28 03:03:09;;;;;;;1.53;1.43;;;22.90;85.40;;;;;;5093849;28;20435;-84
2023/05/28 03:05:36;;;;;;;1.70;1.60;;;22.90;85.20;;;;;;5093918;28;20863;-83
2023/05/28 03:08:05;;;;;;;2.00;1.90;;;22.90;85.20;;;;;;5093710;28;20489;-83
2023/05/28 03:10:31;;;;;;;1.77;1.67;;;22.90;85.40;;;;;;5093593;28;20468;-83
2023/05/28 03:12:58;;;;;;;2.20;2.00;;;22.90;85.30;;;;;;5093612;28;20467;-83
2023/05/28 03:15:26;;;;;;;2.37;2.23;;;22.90;85.20;;;;;;5093731;28;20436;-88
2023/05/28 03:17:53;;;;;;;1.40;1.30;;;22.90;85.00;;;;;;5093621;28;20446;-84
2023/05/28 03:20:20;;;;;;;1.80;1.70;;;23.10;85.10;;;;;;5093363;28;20806;-83
2023/05/28 03:22:48;;;;;;;1.70;1.60;;;22.90;84.40;;;;;;5093507;28;20955;-83
2023/05/28 03:25:17;;;;;;;1.57;1.47;;;23.00;84.50;;;;;;5093662;28;20787;-83
2023/05/28 03:27:43;;;;;;;1.77;1.67;;;22.90;84.50;;;;;;5093652;28;20509;-83
2023/05/28 03:30:11;;;;;;;1.77;1.67;;;22.90;84.30;;;;;;5093468;28;20789;-83
2023/05/28 03:32:38;;;;;;;1.60;1.50;;;22.90;84.20;;;;;;5093384;28;20442;-83
2023/05/28 03:35:06;;;;;;;2.07;1.90;;;22.90;84.00;;;;;;5093430;28;20447;-83
2023/05/28 03:37:33;;;;;;;1.60;1.50;;;22.90;83.90;;;;;;5093312;28;20456;-83
2023/05/28 03:40:00;;;;;;;1.80;1.70;;;22.90;84.90;;;;;;5093457;28;20478;-83
2023/05/28 03:42:28;;;;;;;1.70;1.60;;;22.90;84.10;;;;;;5093584;28;20457;-83
2023/05/28 03:44:55;;;;;;;2.00;1.83;;;22.90;84.00;;;;;;5093292;28;20446;-83
2023/05/28 03:47:21;;;;;;;1.63;1.53;;;22.90;83.80;;;;;;5093166;28;20494;-83
2023/05/28 03:49:48;;;;;;;1.80;1.70;;;22.90;84.10;;;;;;5093384;28;20801;-83
2023/05/28 03:52:15;;;;;;;1.70;1.60;;;22.90;84.20;;;;;;5093391;28;20439;-83
2023/05/28 03:54:42;;;;;;;1.70;1.60;;;22.90;84.20;;;;;;5093447;28;20435;-83
2023/05/28 03:57:09;;;;;;;1.90;1.80;;;23.10;84.60;;;;;;5092950;28;20447;-83
2023/05/28 03:59:37;;;;;;;1.63;1.53;;;22.90;84.10;;;;;;5093262;28;20444;-85
2023/05/28 04:02:04;;;;;;;1.97;1.80;;;22.90;84.40;;;;;;5093240;28;20436;-83
2023/05/28 04:04:31;;;;;;;1.70;1.60;;;22.90;83.80;;;;;;5093188;28;20436;-83
2023/05/28 04:06:58;;;;;;;1.40;1.30;;;22.90;84.30;;;;;;5093065;28;20483;-83
2023/05/28 04:09:26;;;;;;;1.53;1.43;;;22.90;84.40;;;;;;5093043;28;20436;-83
2023/05/28 04:11:53;;;;;;;1.67;1.57;;;22.90;84.40;;;;;;5092798;28;20475;-83
2023/05/28 04:14:20;;;;;;;1.70;1.60;;;22.90;84.50;;;;;;5092975;28;20446;-83
2023/05/28 04:16:49;;;;;;;1.80;1.70;;;22.90;84.20;;;;;;5093130;28;20447;-83
2023/05/28 04:19:16;;;;;;;1.70;1.60;;;22.90;84.20;;;;;;5093057;28;20473;-83
2023/05/28 04:21:42;;;;;;;2.07;1.97;;;22.90;84.20;;;;;;5092803;28;20443;-83
2023/05/28 04:24:09;;;;;;;1.47;1.27;;;23.10;84.50;;;;;;5093010;28;20439;-83
2023/05/28 04:26:37;;;;;;;2.00;1.80;;;22.90;84.20;;;;;;5092836;28;20470;-83
2023/05/28 04:29:03;;;;;;;1.67;1.57;;;22.90;84.40;;;;;;5092854;28;20478;-83
2023/05/28 04:31:31;;;;;;;1.40;1.30;;;22.90;84.30;;;;;;5093097;28;20458;-83
2023/05/28 04:33:59;;;;;;;1.60;1.50;;;22.90;84.40;;;;;;5096818;28;20447;-83
2023/05/28 04:36:29;;;;;;;1.60;1.50;;;22.90;84.30;;;;;;5096560;28;20436;-87
2023/05/28 04:38:56;;;;;;;1.90;1.80;;;22.90;84.20;;;;;;5096606;28;20523;-83
2023/05/28 04:41:24;;;;;;;2.10;1.90;;;22.80;84.10;;;;;;5096663;28;20929;-83
2023/05/28 04:43:50;;;;;;;1.70;1.60;;;22.90;84.20;;;;;;5096648;28;20443;-89
2023/05/28 04:46:18;;;;;;;1.63;1.53;;;22.90;84.20;;;;;;5096640;28;20443;-83
2023/05/28 04:48:45;;;;;;;1.50;1.40;;;22.90;84.60;;;;;;5096557;28;20483;-84
2023/05/28 04:51:13;;;;;;;1.73;1.63;;;22.80;84.20;;;;;;5096493;28;20466;-83
2023/05/28 04:53:40;;;;;;;1.87;1.77;;;22.80;84.10;;;;;;5096470;28;20439;-83
2023/05/28 04:56:07;;;;;;;1.67;1.57;;;22.90;84.20;;;;;;5096236;28;20450;-83
2023/05/28 04:58:34;;;;;;;1.80;1.70;;;22.80;84.20;;;;;;5096305;28;20443;-83
2023/05/28 05:01:01;;;;;;;1.60;1.50;;;22.80;84.00;;;;;;5096344;28;20497;-83
2023/05/28 05:03:31;;;;;;;1.63;1.53;;;22.80;84.00;;;;;;5096214;28;20487;-83
2023/05/28 05:05:58;;;;;;;1.70;1.60;;;22.80;84.10;;;;;;5096342;28;20435;-83
2023/05/28 05:08:27;;;;;;;1.47;1.37;;;22.90;84.20;;;;;;5096008;28;20844;-83
2023/05/28 05:10:53;;;;;;;1.57;1.47;;;23.10;84.40;;;;;;5096006;28;20450;-83
2023/05/28 05:13:20;;;;;;;1.40;1.30;;;22.90;84.20;;;;;;5095925;28;20574;-83
2023/05/28 05:15:47;;;;;;;1.57;1.47;;;22.80;84.10;;;;;;5096141;28;20432;-83
2023/05/28 05:18:14;;;;;;;1.63;1.53;;;22.80;84.20;;;;;;5095949;28;20446;-83
2023/05/28 05:20:41;;;;;;;1.70;1.60;;;22.80;84.40;;;;;;5095876;28;20532;-83
2023/05/28 05:23:08;;;;;;;1.50;1.40;;;22.80;84.20;;;;;;5095929;28;20439;-84
2023/05/28 05:25:36;;;;;;;1.80;1.70;;;22.80;84.10;;;;;;5095890;28;20436;-87
2023/05/28 05:28:03;;;;;;;1.80;1.60;;;22.80;84.20;;;;;;5095855;28;20487;-83
2023/05/28 05:30:29;;;;;;;2.13;2.03;;;22.80;84.10;;;;;;5095576;28;20436;-83
2023/05/28 05:32:56;;;;;;;1.50;1.40;;;22.80;84.40;;;;;;5095736;28;20488;-83
2023/05/28 05:35:23;;;;;;;1.90;1.80;;;22.80;84.40;;;;;;5095605;28;20530;-83
2023/05/28 05:37:50;;;;;;;1.53;1.43;;;22.80;84.50;;;;;;5095382;28;20470;-83
2023/05/28 05:40:17;;;;;;;1.53;1.43;;;22.80;84.40;;;;;;5095587;28;20479;-83
2023/05/28 05:42:45;;;;;;;1.83;1.73;;;22.80;84.30;;;;;;5095527;28;20439;-83
2023/05/28 05:45:12;;;;;;;2.00;1.90;;;22.80;84.20;;;;;;5095657;28;20450;-83
2023/05/28 05:47:38;;;;;;;1.90;1.73;;;23.00;84.30;;;;;;5095388;28;20478;-83
2023/05/28 05:50:06;;;;;;;1.50;1.37;;;23.00;84.20;;;;;;5095376;28;20498;-83
2023/05/28 05:52:33;;;;;;;1.80;1.57;;;22.80;84.10;;;;;;5095396;28;20450;-83
2023/05/28 05:55:00;;;;;;;1.93;1.70;;;22.80;83.80;;;;;;5095333;28;20469;-83
2023/05/28 05:57:26;;;;;;;1.60;1.47;;;22.80;84.00;;;;;;5095224;28;20442;-83
2023/05/28 05:59:54;;;;;;;1.70;1.60;;;22.80;84.20;;;;;;5095100;28;20440;-83
2023/05/28 06:02:21;;;;;;;1.80;1.70;;;22.80;84.00;;;;;;5095178;28;20436;-83
2023/05/28 06:04:49;;;;;;;1.63;1.53;;;23.00;84.40;;;;;;5095120;28;20463;-84
2023/05/28 06:07:16;;;;;;;1.53;1.43;;;22.80;84.00;;;;;;5094999;28;20472;-83
2023/05/28 06:09:43;;;;;;;2.90;1.50;;;22.80;84.00;;;;;;5095200;28;20512;-83
2023/05/28 06:12:10;;;;;;;1.50;1.40;;;22.80;84.00;;;;;;5094706;28;20465;-83
2023/05/28 06:14:37;;;;;;;1.70;1.60;;;22.80;83.90;;;;;;5095002;28;20845;-83
2023/05/28 06:17:05;;;;;;;1.70;1.60;;;23.00;84.20;;;;;;5094902;28;20433;-83
2023/05/28 06:19:33;;;;;;;1.63;1.53;;;22.80;84.10;;;;;;5094708;28;20458;-84
2023/05/28 06:22:00;;;;;;;1.50;1.40;;;22.80;84.10;;;;;;5094804;28;20945;-83
2023/05/28 06:24:27;;;;;;;1.60;1.50;;;22.80;84.20;;;;;;5094592;28;20436;-83
2023/05/28 06:26:54;;;;;;;1.60;1.50;;;22.80;84.00;;;;;;5094721;28;20616;-83
2023/05/28 06:29:20;;;;;;;1.40;1.30;;;22.80;84.60;;;;;;5094648;28;20488;-83
2023/05/28 06:31:47;;;;;;;1.50;1.30;;;22.80;83.90;;;;;;5094531;28;20446;-83
2023/05/28 06:34:15;;;;;;;1.90;1.57;;;22.90;83.70;;;;;;5094423;28;20459;-83
2023/05/28 06:36:43;;;;;;;1.80;1.70;;;22.90;84.10;;;;;;5094499;28;20442;-83
2023/05/28 06:39:10;;;;;;;1.77;1.67;;;22.90;84.20;;;;;;5094369;28;20470;-83
2023/05/28 06:41:37;;;;;;;1.57;1.47;;;22.90;84.10;;;;;;5094459;28;20439;-83
2023/05/28 06:44:04;;;;;;;2.10;1.60;;;22.90;84.10;;;;;;5094421;28;20831;-83
2023/05/28 06:46:32;;;;;;;1.73;1.63;;;22.90;84.20;;;;;;5094275;28;20467;-83
2023/05/28 06:48:59;;;;;;;1.97;1.87;;;22.90;83.40;;;;;;5094206;28;20493;-83
2023/05/28 06:51:27;;;;;;;1.47;1.30;;;22.90;84.20;;;;;;5094193;28;20941;-83
2023/05/28 06:53:53;;;;;;;1.33;1.23;;;22.90;84.40;;;;;;5094301;28;20436;-83
2023/05/28 06:56:22;;;;;;;1.50;1.40;;;22.90;84.10;;;;;;5093735;28;20440;-83
2023/05/28 06:58:50;;;;;;;1.73;1.63;;;22.90;83.90;;;;;;5093992;28;20494;-83
2023/05/28 07:01:17;;;;;;;1.60;1.50;;;22.90;84.20;;;;;;5093971;28;20611;-83
2023/05/28 07:03:44;;;;;;;1.70;1.60;;;22.90;84.40;;;;;;5094003;28;20439;-83
2023/05/28 07:06:11;;;;;;;2.00;1.80;;;22.90;84.30;;;;;;5093794;28;20442;-82
2023/05/28 07:08:41;;;;;;;1.47;1.37;;;22.90;83.90;;;;;;5093759;28;20490;-83
2023/05/28 07:11:08;;;;;;;1.47;1.37;;;22.90;84.20;;;;;;5093865;28;20920;-83
2023/05/28 07:13:35;;;;;;;1.87;1.77;;;23.00;84.20;;;;;;5093610;28;20467;-82
2023/05/28 07:16:01;;;;;;;1.53;1.43;;;23.00;83.90;;;;;;5093679;28;20443;-83
2023/05/28 07:18:28;;;;;;;1.47;1.37;;;23.00;84.10;;;;;;5093687;28;20454;-83
2023/05/28 07:20:55;;;;;;;1.80;1.70;;;23.00;84.20;;;;;;5093719;28;20453;-83
2023/05/28 07:23:22;;;;;;;1.37;1.27;;;23.00;84.20;;;;;;5093693;28;20532;-87
2023/05/28 07:25:50;;;;;;;1.73;1.63;;;23.00;84.10;;;;;;5093612;28;21011;-83
2023/05/28 07:28:17;;;;;;;1.20;1.10;;;23.00;84.00;;;;;;5093724;28;20479;-83
2023/05/28 07:30:44;;;;;;;1.80;1.70;;;23.00;84.10;;;;;;5093522;28;20442;-83
2023/05/28 07:33:11;;;;;;;1.40;1.30;;;23.00;83.90;;;;;;5093746;28;20535;-83
2023/05/28 07:35:38;;;;;;;1.60;1.50;;;23.00;84.20;;;;;;5093362;28;20437;-83
2023/05/28 07:38:05;;;;;;;1.47;1.37;;;23.20;84.30;;;;;;5093193;28;20466;-82
2023/05/28 07:40:31;;;;;;;1.97;1.70;;;23.00;84.20;;;;;;5093418;28;20471;-83
2023/05/28 07:42:59;;;;;;;1.47;1.37;;;23.00;84.10;;;;;;5093370;28;20450;-83
2023/05/28 07:45:26;;;;;;;1.50;1.27;;;23.10;84.20;;;;;;5093485;28;20441;-84
2023/05/28 07:47:53;;;;;;;1.90;1.80;;;23.10;84.20;;;;;;5093166;28;20801;-83
2023/05/28 07:50:20;;;;;;;1.70;1.60;;;23.10;84.20;;;;;;5093238;28;20443;-83
2023/05/28 07:52:47;;;;;;;1.70;1.60;;;23.10;83.70;;;;;;5093279;28;20443;-83
2023/05/28 07:55:13;;;;;;;2.13;1.57;;;23.10;84.30;;;;;;5093146;28;20527;-83
2023/05/28 07:57:40;;;;;;;1.60;1.50;;;23.10;84.20;;;;;;5093114;28;20432;-83
2023/05/28 08:00:14;;;;;;;1.50;1.40;;;23.30;84.60;;;;;;5093148;28;20442;-83
2023/05/28 08:02:41;;;;;;;1.63;1.53;;;23.10;84.10;;;;;;5093260;28;20467;-83
2023/05/28 08:05:08;;;;;;;1.50;1.40;;;23.10;84.20;;;;;;5093352;28;20489;-83
2023/05/28 08:07:35;;;;;;;1.60;1.40;;;23.20;84.10;;;;;;5094751;28;20514;-82
2023/05/28 08:10:02;;;;;;;1.57;1.47;;;23.20;83.70;;;;;;5097164;28;20487;-83
2023/05/28 08:12:29;;;;;;;1.83;1.37;;;23.20;84.10;;;;;;5097082;28;20475;-83
2023/05/28 08:14:56;;;;;;;1.40;1.30;;;23.20;84.30;;;;;;5097418;28;20432;-83
2023/05/28 08:17:24;;;;;;;1.70;1.60;;;23.20;84.20;;;;;;5097066;28;20437;-83
2023/05/28 08:19:51;;;;;;;1.53;1.33;;;23.30;84.20;;;;;;5097035;28;20443;-83
2023/05/28 08:22:18;;;;;;;1.57;1.47;;;23.30;84.40;;;;;;5097134;28;20488;-83
2023/05/28 08:24:45;;;;;;;1.63;1.53;;;23.30;84.00;;;;;;5097101;28;20435;-83
2023/05/28 08:27:11;;;;;;;1.60;1.50;;;23.30;84.10;;;;;;5096964;28;20443;-83
2023/05/28 08:29:38;;;;;;;1.50;1.40;;;23.40;84.20;;;;;;5096689;28;20486;-83
2023/05/28 08:32:06;;;;;;;1.57;1.47;;;23.40;84.40;;;;;;5096964;28;20440;-83
2023/05/28 08:34:36;;;;;;;1.43;1.27;;;23.40;84.60;;;;;;5096877;28;20442;-83
2023/05/28 08:37:03;;;;;;;1.50;1.40;;;23.40;84.30;;;;;;5096994;28;20437;-84
2023/05/28 08:39:31;;;;;;;1.60;1.47;;;23.50;83.90;;;;;;5096744;28;20443;-83
2023/05/28 08:41:57;;;;;;;1.43;1.33;;;23.50;84.30;;;;;;5096647;28;20460;-83
2023/05/28 08:44:24;;;;;;;1.67;1.57;;;23.50;84.20;;;;;;5096740;28;20527;-84
2023/05/28 08:46:52;;;;;;;1.60;1.50;;;23.60;84.20;;;;;;5096609;28;20927;-83
2023/05/28 08:49:19;;;;;;;1.67;1.57;;;23.70;84.60;;;;;;5096430;28;20487;-83
2023/05/28 08:51:53;;;;;;;1.60;1.40;;;23.60;84.30;;;;;;5096443;28;20812;-83
2023/05/28 08:54:20;;;;;;;1.60;1.33;;;23.60;84.60;;;;;;5096600;28;20455;-83
2023/05/28 08:56:47;;;;;;;1.53;1.37;;;23.70;84.70;;;;;;5096281;28;20439;-83
2023/05/28 08:59:16;;;;;;;2.17;1.47;;;23.70;85.40;;;;;;5096192;28;20445;-83
2023/05/28 09:01:43;;;;;;;1.50;1.40;;;23.70;84.80;;;;;;5096322;28;20943;-83
2023/05/28 09:04:10;;;;;;;2.10;1.60;;;23.70;84.80;;;;;;5096205;28;20444;-84
2023/05/28 09:06:38;;;;;;;1.50;1.30;;;23.70;84.70;;;;;;5096385;28;20465;-83
2023/05/28 09:09:07;;;;;;;1.70;1.30;;;23.70;84.60;;;;;;5096143;28;20496;-83
2023/05/28 09:11:34;;;;;;;1.47;1.37;;;23.80;84.80;;;;;;5095832;28;20472;-83
2023/05/28 09:14:10;;;;;;;1.80;1.67;;;24.00;85.00;;;;;;5096045;28;20444;-83
2023/05/28 09:16:40;;;;;;;1.40;1.20;;;23.80;84.40;;;;;;5095885;28;20479;-83
2023/05/28 09:19:07;;;;;;;1.60;1.50;;;23.80;84.90;;;;;;5095584;28;20440;-83
2023/05/28 09:21:34;;;;;;;1.90;1.80;;;23.90;84.90;;;;;;5095730;28;20931;-83
2023/05/28 09:24:01;;;;;;;1.50;1.40;;;23.80;84.80;;;;;;5095968;28;20443;-83
2023/05/28 09:26:31;;;;;;;1.57;1.30;;;23.90;85.00;;;;;;5095941;28;20444;-83
2023/05/28 09:28:58;;;;;;;1.33;1.23;;;23.90;84.80;;;;;;5095931;28;20489;-83
2023/05/28 09:31:32;;;;;;;1.83;1.30;;;23.90;84.90;;;;;;5095741;28;20838;-83
2023/05/28 09:34:00;;;;;;;2.40;1.60;;;23.90;84.60;;;;;;5095869;28;20473;-83
2023/05/28 09:36:29;;;;;;;1.40;1.20;;;24.00;85.10;;;;;;5095661;28;20448;-83
2023/05/28 09:38:56;;;;;;;1.90;1.60;;;24.00;84.70;;;;;;5095480;28;20460;-83
2023/05/28 09:41:25;;;;;;;1.13;1.03;;;24.00;85.10;;;;;;5095469;28;20540;-84
2023/05/28 09:43:59;;;;;;;1.50;1.40;;;24.20;85.40;;;;;;5095520;28;20448;-84
2023/05/28 09:46:30;;;;;;;1.43;1.33;;;24.10;85.20;;;;;;5095476;28;20462;-83
2023/05/28 09:48:57;;;;;;;1.50;1.40;;;24.10;85.20;;;;;;5095296;28;20529;-84
2023/05/28 09:51:28;;;;;;;1.30;1.20;;;24.10;84.70;;;;;;5095238;28;20477;-83
2023/05/28 09:53:58;;;;;;;1.50;1.27;;;24.20;85.30;;;;;;5095348;28;20429;-83
2023/05/28 09:56:29;;;;;;;1.50;1.20;;;24.10;85.10;;;;;;5095161;28;20498;-83
2023/05/28 09:58:58;;;;;;;1.50;1.33;;;24.10;85.10;;;;;;5095153;28;20856;-83
2023/05/28 10:01:30;;;;;;;2.10;1.40;;;24.20;85.10;;;;;;5095073;28;20440;-83
2023/05/28 10:04:03;;;;;;;1.50;1.40;;;24.20;85.20;;;;;;5095155;28;20438;-83
2023/05/28 10:06:31;;;;;;;1.40;1.30;;;24.20;85.00;;;;;;5095167;28;20446;-83
2023/05/28 10:08:59;;;;;;;1.53;1.43;;;24.20;85.10;;;;;;5094870;28;20888;-83
2023/05/28 10:11:28;;;;;;;1.40;1.30;;;24.30;84.90;;;;;;5094638;28;20438;-84
2023/05/28 10:13:57;;;;;;;1.20;1.10;;;24.30;85.10;;;;;;5095027;28;20446;-83
2023/05/28 10:16:25;;;;;;;1.43;1.33;;;24.30;85.40;;;;;;5094712;28;20440;-83
2023/05/28 10:18:54;;;;;;;1.80;1.40;;;24.30;85.00;;;;;;5094851;28;20446;-84
2023/05/28 10:21:21;;;;;;;1.40;1.20;;;24.40;85.10;;;;;;5094870;28;20467;-84
2023/05/28 10:23:48;;;;;;;1.50;1.20;;;24.40;84.70;;;;;;5094704;28;20446;-83
2023/05/28 10:26:15;;;;;;;1.23;1.13;;;24.40;84.70;;;;;;5094893;28;20452;-83
2023/05/28 10:28:43;;;;;;;1.47;1.37;;;24.40;84.40;;;;;;5094633;28;20442;-83
2023/05/28 10:31:11;;;;;;;1.77;1.67;;;24.40;84.60;;;;;;5093777;28;20443;-83
2023/05/28 10:33:40;;;;;;;1.60;1.50;;;24.50;84.80;;;;;;5094426;28;20449;-83
2023/05/28 10:36:12;;;;;;;1.30;1.20;;;24.50;84.70;;;;;;5094414;28;20507;-84
2023/05/28 10:38:58;;;;;;;1.60;1.30;;;24.50;84.50;;;;;;5094355;28;20536;-84
2023/05/28 10:41:25;;;;;;;1.40;1.30;;;24.50;84.60;;;;;;5094453;28;21075;-83
2023/05/28 10:43:52;;;;;;;1.60;1.50;;;24.50;84.30;;;;;;5094527;28;20471;-83
2023/05/28 10:46:35;;;;;;;1.60;1.50;;;24.60;84.80;;;;;;5094390;28;20438;-84
2023/05/28 10:49:11;;;;;;;1.93;1.40;;;24.60;84.90;;;;;;5094384;28;20477;-83
2023/05/28 10:51:58;;;;;;;1.80;1.70;;;24.60;84.90;;;;;;5094142;28;20437;-84
2023/05/28 10:54:42;;;;;;;1.50;1.30;;;24.60;84.70;;;;;;5094319;28;20509;-83
2023/05/28 10:57:14;;;;;;;1.43;1.33;;;24.60;84.90;;;;;;5093218;28;20456;-83
2023/05/28 10:59:45;;;;;;;1.30;1.20;;;24.70;84.90;;;;;;5094069;28;20533;-83
2023/05/28 11:02:17;;;;;;;1.50;1.40;;;24.70;84.90;;;;;;5094158;28;20453;-84
2023/05/28 11:04:44;;;;;;;1.90;1.47;;;24.70;84.80;;;;;;5093992;28;20864;-84
2023/05/28 11:07:13;;;;;;;1.30;1.20;;;24.70;84.90;;;;;;5093758;28;20565;-83
2023/05/28 11:09:40;;;;;;;1.40;1.20;;;24.70;84.90;;;;;;5093798;28;20489;-88
2023/05/28 11:12:08;;;;;;;1.30;1.20;;;24.70;84.70;;;;;;5093801;28;20912;-84
2023/05/28 11:14:36;;;;;;;1.47;1.37;;;24.70;84.90;;;;;;5093809;28;20443;-84
2023/05/28 11:17:08;;;;;;;1.50;1.40;;;24.70;84.70;;;;;;5093848;28;20446;-83
2023/05/28 11:19:42;;;;;;;1.50;1.23;;;24.80;84.90;;;;;;5093932;28;20430;-84
2023/05/28 11:22:11;;;;;;;1.17;1.00;;;24.80;84.90;;;;;;5093761;28;20525;-84
2023/05/28 11:24:58;;;;;;;1.40;1.30;;;24.80;85.10;;;;;;5093694;28;20443;-83
2023/05/28 11:27:26;;;;;;;1.47;1.37;;;24.80;84.70;;;;;;5093579;28;20479;-84
2023/05/28 11:29:55;;;;;;;1.37;1.27;;;24.80;84.90;;;;;;5093550;28;20836;-84
2023/05/28 11:32:22;;;;;;;1.40;1.30;;;24.80;85.00;;;;;;5093691;28;20442;-84
2023/05/28 11:34:51;;;;;;;1.63;1.40;;;24.80;84.70;;;;;;5093453;28;20449;-84
2023/05/28 11:37:25;;;;;;;2.10;1.80;;;24.80;85.30;;;;;;5093374;28;20457;-84
2023/05/28 11:39:53;;;;;;;1.53;1.43;;;24.90;84.80;;;;;;5093372;28;20457;-84
2023/05/28 11:42:21;;;;;;;1.70;1.60;;;24.80;85.20;;;;;;5093510;28;20440;-84
2023/05/28 11:44:50;;;;;;;1.43;1.33;;;24.90;85.00;;;;;;5093319;28;20430;-90
2023/05/28 11:47:16;;;;;;;1.30;1.17;;;24.90;84.90;;;;;;5093339;28;20449;-85
2023/05/28 11:49:44;;;;;;;1.50;1.03;;;24.90;84.80;;;;;;5093175;28;20478;-84
2023/05/28 11:52:13;;;;;;;1.50;1.20;;;24.90;84.70;;;;;;5093249;28;20957;-84
2023/05/28 11:54:41;;;;;;;1.40;1.30;;;24.90;84.60;;;;;;5093200;28;20448;-84
2023/05/28 11:57:08;;;;;;;1.60;1.47;;;24.90;85.20;;;;;;5093035;28;20445;-84
2023/05/28 11:59:36;;;;;;;1.70;1.60;;;24.90;85.10;;;;;;5093052;28;20447;-84
2023/05/28 12:02:12;;;;;;;1.70;1.20;;;25.00;84.80;;;;;;5093112;28;20449;-84
2023/05/28 12:04:39;;;;;;;1.50;1.30;;;25.00;84.60;;;;;;5093166;28;20478;-85
2023/05/28 12:07:06;;;;;;;1.53;1.23;;;25.20;84.90;;;;;;5093251;28;20466;-84
2023/05/28 12:09:35;;;;;;;1.20;1.10;;;25.00;84.60;;;;;;5092961;28;21001;-84
2023/05/28 12:12:03;;;;;;;1.63;1.37;;;25.00;84.50;;;;;;5092869;28;20481;-87
2023/05/28 12:14:31;;;;;;;1.80;1.70;;;25.00;84.40;;;;;;5093092;28;20441;-84
2023/05/28 12:17:06;;;;;;;1.40;1.30;;;25.00;84.20;;;;;;5092870;28;20604;-84
2023/05/28 12:19:34;;;;;;;1.43;1.33;;;25.00;84.30;;;;;;5092920;28;20449;-84
2023/05/28 12:22:01;;;;;;;1.50;1.40;;;25.30;84.50;;;;;;5093061;28;20465;-84
2023/05/28 12:24:29;;;;;;;1.53;1.43;;;25.10;84.20;;;;;;5092960;28;20439;-87
2023/05/28 12:26:57;;;;;;;1.30;1.13;;;25.10;84.20;;;;;;5092903;28;20521;-83
2023/05/28 12:29:24;;;;;;;1.37;1.27;;;25.00;84.00;;;;;;5092878;28;20521;-84
2023/05/28 12:31:58;;;;;;;1.87;1.53;;;25.00;84.40;;;;;;5093149;28;20788;-84
2023/05/28 12:34:25;;;;;;;1.70;1.30;;;25.10;84.50;;;;;;5093045;28;20442;-84
2023/05/28 12:36:52;;;;;;;1.70;1.50;;;25.10;84.20;;;;;;5092625;28;20491;-84
2023/05/28 12:39:19;;;;;;;1.97;1.57;;;25.10;84.30;;;;;;5092756;28;20529;-84
2023/05/28 12:41:46;;;;;;;1.73;1.63;;;25.10;84.30;;;;;;5092771;28;20508;-84
2023/05/28 12:44:15;;;;;;;1.60;1.50;;;25.10;84.40;;;;;;5092821;28;20436;-85
2023/05/28 12:46:42;;;;;;;1.60;1.30;;;25.10;84.70;;;;;;5092723;28;20849;-84
2023/05/28 12:49:08;;;;;;;1.20;1.10;;;25.10;85.40;;;;;;5092721;28;20432;-83
2023/05/28 12:51:35;;;;;;;1.57;1.20;;;25.10;85.10;;;;;;5092705;28;20481;-84